Time;durP1;ratioP1;P1;durP2;ratioP2;P2;SDS_P1;SDS_P2;PMS_P1;PMS_P2;Temp;Humidity;BMP_temperature;BMP_pressure;BME280_temperature;BME280_humidity;BME280_pressure;Samples;Min_cycle;Max_cycle;Signal;HPM_P1;HPM_P2
2023/03/10 00:01:15;;;;;;;12.82;7.15;;;;;;;1.50;100.00;98637.97;5130211;27;20437;-59
2023/03/10 00:03:44;;;;;;;12.80;7.78;;;;;;;1.50;100.00;98634.50;5128555;27;20051;-59
2023/03/10 00:06:19;;;;;;;12.10;7.03;;;;;;;1.57;100.00;98635.81;5133146;27;20051;-59
2023/03/10 00:08:51;;;;;;;12.43;7.72;;;;;;;1.50;100.00;98637.09;5120913;27;20039;-60
2023/03/10 00:11:19;;;;;;;10.98;6.60;;;;;;;1.50;100.00;98637.97;5121536;27;20062;-59
2023/03/10 00:13:47;;;;;;;11.60;7.28;;;;;;;1.53;100.00;98631.75;5128687;27;20044;-59
2023/03/10 00:16:18;;;;;;;12.48;7.15;;;;;;;1.55;100.00;98629.06;5134922;27;20540;-59
2023/03/10 00:18:50;;;;;;;12.13;6.95;;;;;;;1.52;100.00;98630.91;5135973;27;20047;-59
2023/03/10 00:21:20;;;;;;;11.43;6.68;;;;;;;1.60;100.00;98624.44;5135878;27;20074;-59
2023/03/10 00:23:48;;;;;;;11.65;7.15;;;;;;;1.52;100.00;98630.91;5135777;27;20046;-59
2023/03/10 00:26:19;;;;;;;11.57;6.32;;;;;;;1.58;100.00;98618.50;5134699;27;20043;-59
2023/03/10 00:28:48;;;;;;;10.73;6.50;;;;;;;1.56;100.00;98615.19;5134554;27;20058;-59
2023/03/10 00:31:19;;;;;;;12.13;7.10;;;;;;;1.53;100.00;98613.63;5134424;27;20096;-59
2023/03/10 00:33:47;;;;;;;11.90;6.93;;;;;;;1.53;100.00;98626.56;5136102;27;20490;-59
2023/03/10 00:36:17;;;;;;;13.10;6.45;;;;;;;1.52;100.00;98627.50;5134775;27;20073;-59
2023/03/10 00:38:46;;;;;;;11.23;6.60;;;;;;;1.50;100.00;98632.78;5135468;27;20539;-59
2023/03/10 00:41:17;;;;;;;12.63;7.10;;;;;;;1.49;100.00;98625.91;5135259;27;20042;-59
2023/03/10 00:43:45;;;;;;;11.35;6.50;;;;;;;1.48;100.00;98631.19;5134496;27;20493;-58
2023/03/10 00:46:14;;;;;;;11.27;6.35;;;;;;;1.56;100.00;98641.91;5134562;27;20126;-59
2023/03/10 00:48:42;;;;;;;10.88;6.50;;;;;;;1.59;100.00;98646.06;5125404;27;20383;-59
2023/03/10 00:51:11;;;;;;;11.75;6.63;;;;;;;1.62;100.00;98636.34;5125560;27;20035;-59
2023/03/10 00:53:40;;;;;;;10.57;6.22;;;;;;;1.60;100.00;98621.84;5134799;27;20065;-50
2023/03/10 00:56:12;;;;;;;10.35;5.95;;;;;;;1.60;100.00;98619.25;5133902;27;20117;-53
2023/03/10 00:58:43;;;;;;;10.52;5.63;;;;;;;1.62;100.00;98619.97;5132506;27;20047;-53
2023/03/10 01:01:14;;;;;;;9.95;6.18;;;;;;;1.65;100.00;98615.44;5127688;27;20520;-54
2023/03/10 01:03:46;;;;;;;11.30;6.13;;;;;;;1.62;100.00;98607.84;5111314;27;20383;-53
2023/03/10 01:06:14;;;;;;;10.32;5.65;;;;;;;1.60;100.00;98608.88;5119097;27;20128;-53
2023/03/10 01:08:42;;;;;;;10.48;5.97;;;;;;;1.62;100.00;98599.22;5132444;27;20367;-51
2023/03/10 01:11:13;;;;;;;10.68;6.43;;;;;;;1.64;100.00;98594.78;5113977;27;20050;-51
2023/03/10 01:13:43;;;;;;;9.68;6.22;;;;;;;1.64;100.00;98594.78;5128573;27;20044;-51
2023/03/10 01:16:14;;;;;;;11.15;5.85;;;;;;;1.66;100.00;98598.09;5121725;27;20039;-52
2023/03/10 01:18:42;;;;;;;11.73;7.03;;;;;;;1.66;100.00;98605.88;5130236;27;20050;-52
2023/03/10 01:21:17;;;;;;;11.88;6.32;;;;;;;1.62;100.00;98576.75;5129739;27;20097;-51
2023/03/10 01:23:45;;;;;;;12.55;6.85;;;;;;;1.66;100.00;98591.19;5129907;27;20118;-50
2023/03/10 01:26:15;;;;;;;12.02;6.53;;;;;;;1.66;100.00;98591.19;5131852;27;20051;-50
2023/03/10 01:28:47;;;;;;;10.50;5.95;;;;;;;1.69;100.00;98608.25;5132768;27;20489;-51
2023/03/10 01:31:16;;;;;;;10.82;6.00;;;;;;;1.68;100.00;98599.66;5130628;27;20118;-50
2023/03/10 01:33:45;;;;;;;10.15;5.90;;;;;;;1.74;100.00;98608.00;5130659;27;20050;-50
2023/03/10 01:36:15;;;;;;;10.05;5.85;;;;;;;1.74;100.00;98602.81;5124133;27;20432;-49
2023/03/10 01:38:45;;;;;;;9.82;5.45;;;;;;;1.81;100.00;98594.53;5109714;28;20047;-49
2023/03/10 01:41:13;;;;;;;9.15;5.47;;;;;;;1.79;100.00;98596.38;5109076;28;20040;-52
2023/03/10 01:43:43;;;;;;;9.73;5.85;;;;;;;1.83;100.00;98599.63;5109091;28;20127;-52
2023/03/10 01:46:46;;;;;;;9.95;6.00;;;;;;;1.88;100.00;98604.50;5112748;27;20056;-50
2023/03/10 01:49:20;;;;;;;9.40;5.40;;;;;;;1.89;100.00;98596.63;5109501;27;20040;-49
2023/03/10 01:51:54;;;;;;;8.98;5.22;;;;;;;1.91;100.00;98588.75;5118242;27;20109;-52
2023/03/10 01:54:26;;;;;;;9.07;5.15;;;;;;;1.85;100.00;98575.28;5124143;27;20051;-50
2023/03/10 01:56:56;;;;;;;9.75;4.75;;;;;;;1.91;100.00;98583.56;5129114;27;20097;-50
2023/03/10 01:59:26;;;;;;;9.43;5.30;;;;;;;1.92;100.00;98582.63;5123210;27;20051;-49
2023/03/10 02:02:00;;;;;;;8.57;5.28;;;;;;;1.97;100.00;98577.97;5110867;27;20375;-51
2023/03/10 02:04:34;;;;;;;9.13;4.88;;;;;;;1.98;100.00;98579.66;5110101;27;20459;-51
2023/03/10 02:07:04;;;;;;;9.90;4.60;;;;;;;2.00;100.00;98577.78;5125806;27;20043;-49
2023/03/10 02:09:39;;;;;;;9.18;5.18;;;;;;;2.01;100.00;98574.25;5123948;27;20067;-49
2023/03/10 02:12:09;;;;;;;8.00;4.63;;;;;;;2.05;100.00;98573.13;5117683;27;20039;-49
2023/03/10 02:14:37;;;;;;;8.40;4.70;;;;;;;1.98;100.00;98575.28;5125247;27;20118;-49
2023/03/10 02:17:10;;;;;;;9.70;5.50;;;;;;;1.92;100.00;98574.84;5113220;27;20039;-49
2023/03/10 02:19:56;;;;;;;9.20;5.13;;;;;;;1.95;100.00;98582.41;5120534;27;20498;-53
2023/03/10 02:22:24;;;;;;;9.63;5.47;;;;;;;1.97;100.00;98572.78;5128341;27;20133;-49
2023/03/10 02:24:58;;;;;;;10.85;5.78;;;;;;;1.95;100.00;98572.06;5130313;27;20055;-50
2023/03/10 02:27:31;;;;;;;9.68;5.47;;;;;;;1.90;100.00;98572.38;5120096;27;20873;-49
2023/03/10 02:30:03;;;;;;;10.00;5.60;;;;;;;1.91;100.00;98575.78;5110918;28;20428;-60
2023/03/10 02:32:34;;;;;;;10.68;5.72;;;;;;;1.98;100.00;98570.09;5112124;28;20482;-59
2023/03/10 02:35:03;;;;;;;10.68;5.82;;;;;;;1.97;100.00;98570.22;5113470;28;20044;-59
2023/03/10 02:37:33;;;;;;;10.30;5.68;;;;;;;2.01;100.00;98571.66;5113363;28;20035;-60
2023/03/10 02:40:03;;;;;;;10.48;6.25;;;;;;;1.99;100.00;98571.78;5112042;28;20051;-60
2023/03/10 02:42:36;;;;;;;10.57;5.95;;;;;;;2.03;100.00;98577.56;5119287;28;20474;-51
2023/03/10 02:45:04;;;;;;;;;;;;;;;2.11;100.00;98579.66;5128891;27;20047;-52
2023/03/10 02:47:32;;;;;;;11.02;6.10;;;;;;;2.04;100.00;98571.44;5128380;28;19919;-49
2023/03/10 02:50:01;;;;;;;11.02;5.97;;;;;;;2.05;100.00;98570.53;5125938;27;20517;-53
2023/03/10 02:52:36;;;;;;;10.68;5.90;;;;;;;2.04;100.00;98561.09;5126510;28;20045;-53
2023/03/10 02:55:05;;;;;;;10.93;6.30;;;;;;;1.99;100.00;98560.53;5115655;27;20075;-50
2023/03/10 02:57:37;;;;;;;10.35;5.88;;;;;;;2.01;100.00;98558.69;5115885;28;20036;-50
2023/03/10 03:00:07;;;;;;;11.23;5.90;;;;;;;2.05;100.00;98559.34;5131187;27;20439;-52
2023/03/10 03:02:35;;;;;;;9.18;5.63;;;;;;;2.11;100.00;98553.72;5129716;27;20039;-51
2023/03/10 03:05:04;;;;;;;10.30;5.70;;;;;;;2.09;100.00;98558.19;5134087;27;20073;-50
2023/03/10 03:07:32;;;;;;;10.25;5.68;;;;;;;2.06;100.00;98558.38;5127171;27;20047;-50
2023/03/10 03:10:00;;;;;;;9.60;5.85;;;;;;;2.14;100.00;98549.19;5131508;27;20047;-54
2023/03/10 03:12:28;;;;;;;10.60;5.97;;;;;;;2.11;100.00;98559.72;5114561;27;20062;-50
2023/03/10 03:14:58;;;;;;;10.43;6.30;;;;;;;2.12;100.00;98560.59;5113355;27;20491;-52
2023/03/10 03:17:27;;;;;;;9.55;5.38;;;;;;;2.15;100.00;98547.41;5131235;27;20351;-51
2023/03/10 03:19:55;;;;;;;9.73;5.72;;;;;;;2.11;100.00;98562.31;5127742;27;20043;-51
2023/03/10 03:22:23;;;;;;;9.98;5.90;;;;;;;2.03;100.00;98557.66;5124329;27;20035;-50
2023/03/10 03:24:51;;;;;;;9.40;5.18;;;;;;;2.03;100.00;98554.22;5118501;27;20164;-49
2023/03/10 03:27:19;;;;;;;10.88;5.85;;;;;;;2.00;100.00;98551.84;5114863;27;20108;-47
2023/03/10 03:29:47;;;;;;;11.05;5.97;;;;;;;2.03;100.00;98544.72;5131822;27;20119;-51
2023/03/10 03:32:17;;;;;;;10.43;5.72;;;;;;;2.00;100.00;98552.69;5121838;27;20048;-49
2023/03/10 03:34:45;;;;;;;9.85;5.30;;;;;;;2.02;100.00;98539.63;5132610;27;20063;-51
2023/03/10 03:37:13;;;;;;;10.20;5.90;;;;;;;2.00;100.00;98541.47;5135462;27;20049;-53
2023/03/10 03:39:41;;;;;;;10.35;6.07;;;;;;;1.99;100.00;98545.00;5134790;27;20122;-54
2023/03/10 03:42:09;;;;;;;9.65;5.32;;;;;;;1.98;100.00;98545.94;5121494;27;20043;-50
2023/03/10 03:44:37;;;;;;;11.25;6.03;;;;;;;1.98;100.00;98536.41;5121876;27;20052;-48
2023/03/10 03:47:07;;;;;;;10.77;6.00;;;;;;;1.93;100.00;98540.22;5123796;27;20099;-51
2023/03/10 03:49:37;;;;;;;11.02;6.30;;;;;;;1.94;100.00;98537.53;5132606;27;20435;-51
2023/03/10 03:52:07;;;;;;;10.95;6.25;;;;;;;1.96;100.00;98527.88;5118750;27;20614;-52
2023/03/10 03:54:35;;;;;;;10.35;5.80;;;;;;;1.98;100.00;98532.97;5117413;27;20035;-50
2023/03/10 03:57:03;;;;;;;10.70;6.60;;;;;;;1.96;100.00;98537.44;5123026;27;20039;-49
2023/03/10 03:59:31;;;;;;;10.05;5.68;;;;;;;1.96;100.00;98532.25;5130706;27;20043;-51
2023/03/10 04:01:59;;;;;;;10.57;5.90;;;;;;;1.86;100.00;98529.44;5112552;27;20150;-52
2023/03/10 04:04:27;;;;;;;11.30;5.90;;;;;;;1.87;100.00;98531.09;5124992;27;20042;-50
2023/03/10 04:06:57;;;;;;;10.93;6.20;;;;;;;1.86;100.00;98529.44;5132236;27;20130;-53
2023/03/10 04:09:25;;;;;;;11.07;6.40;;;;;;;1.89;100.00;98523.22;5121000;27;20047;-52
2023/03/10 04:11:53;;;;;;;12.52;6.10;;;;;;;1.98;100.00;98520.84;5127920;27;20032;-52
2023/03/10 04:14:21;;;;;;;10.95;6.30;;;;;;;1.93;100.00;98535.84;5111978;28;20506;-53
2023/03/10 04:16:49;;;;;;;12.70;6.03;;;;;;;1.88;100.00;98530.16;5125319;27;20077;-52
2023/03/10 04:19:17;;;;;;;11.57;6.35;;;;;;;1.89;100.00;98525.81;5127142;27;20063;-52
2023/03/10 04:21:45;;;;;;;12.82;6.10;;;;;;;1.90;100.00;98520.53;5130471;27;20148;-50
2023/03/10 04:24:15;;;;;;;11.35;6.07;;;;;;;1.96;100.00;98530.47;5114450;27;20064;-50
2023/03/10 04:26:43;;;;;;;10.77;6.20;;;;;;;1.85;100.00;98530.34;5123178;27;20050;-50
2023/03/10 04:29:11;;;;;;;11.75;5.97;;;;;;;1.92;100.00;98525.59;5130459;27;20431;-53
2023/03/10 04:31:39;;;;;;;11.82;6.38;;;;;;;1.80;100.00;98533.25;5114875;27;20062;-52
2023/03/10 04:34:10;;;;;;;13.55;6.88;;;;;;;1.76;100.00;98528.34;5118485;27;20047;-52
2023/03/10 04:36:38;;;;;;;12.63;6.97;;;;;;;1.77;100.00;98527.44;5131017;27;20089;-53
2023/03/10 04:39:08;;;;;;;13.52;6.68;;;;;;;1.78;100.00;98527.34;5119818;27;20069;-50
2023/03/10 04:41:38;;;;;;;12.38;6.43;;;;;;;1.79;100.00;98529.00;5120846;27;20096;-50
2023/03/10 04:44:06;;;;;;;11.73;6.25;;;;;;;1.81;100.00;98532.34;5132629;27;20051;-51
2023/03/10 04:46:37;;;;;;;12.60;6.43;;;;;;;1.76;100.00;98529.22;5132197;27;20359;-50
2023/03/10 04:49:06;;;;;;;12.90;5.93;;;;;;;1.79;100.00;98530.78;5130992;27;20058;-49
2023/03/10 04:51:34;;;;;;;11.82;6.25;;;;;;;1.75;100.00;98537.91;5121300;27;20055;-51
2023/03/10 04:54:02;;;;;;;11.00;6.10;;;;;;;1.77;100.00;98538.66;5124582;27;20039;-50
2023/03/10 04:56:30;;;;;;;10.18;5.47;;;;;;;1.73;100.00;98531.97;5132814;27;20092;-51
2023/03/10 04:59:00;;;;;;;12.20;5.53;;;;;;;1.71;100.00;98531.28;5134081;27;20545;-53
2023/03/10 05:01:31;;;;;;;10.63;5.63;;;;;;;1.69;100.00;98523.59;5131449;27;20070;-51
2023/03/10 05:04:00;;;;;;;10.63;5.25;;;;;;;1.66;100.00;98517.78;5116647;27;20052;-52
2023/03/10 05:06:28;;;;;;;10.13;5.22;;;;;;;1.62;100.00;98521.50;5110323;27;20047;-51
2023/03/10 05:08:57;;;;;;;10.15;5.00;;;;;;;1.67;100.00;98519.44;5111436;27;20112;-51
2023/03/10 05:11:25;;;;;;;10.35;4.97;;;;;;;1.60;100.00;98513.81;5114610;27;20040;-51
2023/03/10 05:13:53;;;;;;;10.77;5.43;;;;;;;1.60;100.00;98510.41;5122171;27;20055;-52
2023/03/10 05:16:23;;;;;;;9.95;4.90;;;;;;;1.58;100.00;98512.25;5118013;27;20485;-52
2023/03/10 05:18:51;;;;;;;9.35;4.72;;;;;;;1.59;100.00;98506.97;5125791;27;20075;-52
2023/03/10 05:21:20;;;;;;;9.50;4.80;;;;;;;1.64;100.00;98510.09;5110939;27;20047;-49
2023/03/10 05:23:48;;;;;;;9.50;4.68;;;;;;;1.67;100.00;98507.31;5110253;27;20399;-52
2023/03/10 05:26:17;;;;;;;10.23;4.63;;;;;;;1.65;100.00;98504.00;5130604;27;20071;-49
2023/03/10 05:28:45;;;;;;;10.00;4.47;;;;;;;1.74;100.00;98506.91;5129628;27;20109;-53
2023/03/10 05:31:15;;;;;;;9.75;4.57;;;;;;;1.76;100.00;98515.41;5128702;27;20057;-53
2023/03/10 05:33:44;;;;;;;9.38;4.05;;;;;;;1.72;100.00;98509.59;5115211;27;20039;-52
2023/03/10 05:36:13;;;;;;;10.35;4.70;;;;;;;1.74;100.00;98512.91;5114359;27;20051;-53
2023/03/10 05:38:45;;;;;;;9.00;4.47;;;;;;;1.67;100.00;98509.06;5125065;27;20039;-49
2023/03/10 05:41:13;;;;;;;7.78;3.67;;;;;;;1.75;100.00;98511.19;5131892;27;20039;-50
2023/03/10 05:43:41;;;;;;;8.35;3.47;;;;;;;1.61;100.00;98514.66;5129598;27;20107;-50
2023/03/10 05:46:10;;;;;;;9.05;3.85;;;;;;;1.60;100.00;98518.19;5111656;28;20043;-51
2023/03/10 05:48:39;;;;;;;9.32;3.70;;;;;;;1.62;100.00;98514.56;5126687;27;20076;-52
2023/03/10 05:51:11;;;;;;;8.35;3.63;;;;;;;1.63;100.00;98520.56;5120970;27;20040;-50
2023/03/10 05:53:40;;;;;;;9.05;3.85;;;;;;;1.56;100.00;98525.31;5120345;27;20043;-52
2023/03/10 05:56:13;;;;;;;8.18;3.92;;;;;;;1.57;100.00;98528.72;5127969;27;20036;-51
2023/03/10 05:58:42;;;;;;;7.93;3.30;;;;;;;1.56;100.00;98529.69;5121720;27;20462;-50
2023/03/10 06:01:11;;;;;;;7.63;3.55;;;;;;;1.54;100.00;98539.31;5117322;27;20065;-51
2023/03/10 06:03:39;;;;;;;7.85;3.67;;;;;;;1.52;100.00;98542.00;5130531;27;20070;-51
2023/03/10 06:06:09;;;;;;;10.02;3.55;;;;;;;1.55;100.00;98536.59;5130690;27;20051;-54
2023/03/10 06:08:37;;;;;;;8.35;3.47;;;;;;;1.50;100.00;98531.72;5132643;27;20107;-49
2023/03/10 06:11:06;;;;;;;7.57;3.40;;;;;;;1.57;100.00;98533.91;5119559;27;20436;-51
2023/03/10 06:13:34;;;;;;;7.53;3.10;;;;;;;1.54;100.00;98547.91;5127589;27;20115;-53
2023/03/10 06:16:05;;;;;;;7.72;3.38;;;;;;;1.55;100.00;98531.44;5125903;27;20067;-51
2023/03/10 06:18:34;;;;;;;8.38;3.25;;;;;;;1.59;100.00;98534.66;5119016;27;20044;-54
2023/03/10 06:21:06;;;;;;;7.13;2.95;;;;;;;1.59;100.00;98534.66;5113057;27;20578;-54
2023/03/10 06:23:37;;;;;;;7.00;2.85;;;;;;;1.59;100.00;98532.88;5132302;27;20035;-51
2023/03/10 06:26:07;;;;;;;5.13;2.10;;;;;;;1.59;100.00;98529.47;5133657;27;20104;-52
2023/03/10 06:28:38;;;;;;;9.68;2.50;;;;;;;1.58;100.00;98531.25;5133314;27;20051;-52
2023/03/10 06:31:08;;;;;;;6.00;2.30;;;;;;;1.57;100.00;98526.13;5133409;28;20083;-52
2023/03/10 06:33:37;;;;;;;5.28;2.10;;;;;;;1.59;100.00;98532.06;5133030;27;20047;-52
2023/03/10 06:36:06;;;;;;;5.82;2.13;;;;;;;1.72;100.00;98535.53;5134876;27;20466;-52
2023/03/10 06:38:34;;;;;;;5.95;2.60;;;;;;;1.65;100.00;98531.66;5132496;27;20534;-51
2023/03/10 06:41:03;;;;;;;6.55;2.72;;;;;;;1.62;100.00;98534.44;5135798;27;20039;-51
2023/03/10 06:43:32;;;;;;;6.55;2.85;;;;;;;1.66;100.00;98541.09;5119485;27;20047;-51
2023/03/10 06:46:03;;;;;;;5.90;2.53;;;;;;;1.64;100.00;98541.19;5114156;28;20039;-51
2023/03/10 06:48:32;;;;;;;7.03;2.88;;;;;;;1.60;100.00;98536.31;5113312;28;20517;-52
2023/03/10 06:51:00;;;;;;;7.18;3.10;;;;;;;1.60;100.00;98546.69;5114142;28;20051;-49
2023/03/10 06:53:28;;;;;;;6.28;2.75;;;;;;;1.59;100.00;98542.44;5120892;27;20076;-52
2023/03/10 06:55:58;;;;;;;6.55;2.85;;;;;;;1.59;100.00;98539.84;5115458;28;20123;-51
2023/03/10 06:58:28;;;;;;;7.00;3.20;;;;;;;1.55;100.00;98551.34;5120757;27;20043;-48
2023/03/10 07:00:56;;;;;;;9.35;3.53;;;;;;;1.50;100.00;98539.50;5133025;27;20050;-50
2023/03/10 07:03:28;;;;;;;7.85;3.70;;;;;;;1.54;100.00;98542.75;5134680;27;20367;-51
2023/03/10 07:05:57;;;;;;;6.50;3.22;;;;;;;1.57;100.00;98546.88;5136116;27;20094;-48
2023/03/10 07:08:25;;;;;;;7.70;3.58;;;;;;;1.56;100.00;98545.22;5126532;27;20044;-52
2023/03/10 07:10:54;;;;;;;6.93;3.05;;;;;;;1.52;100.00;98548.00;5128883;27;20443;-51
2023/03/10 07:13:23;;;;;;;7.20;3.30;;;;;;;1.57;100.00;98542.53;5116182;27;20445;-48
2023/03/10 07:15:52;;;;;;;6.88;3.13;;;;;;;1.57;100.00;98546.88;5116234;27;20115;-52
2023/03/10 07:18:20;;;;;;;7.65;3.53;;;;;;;1.63;100.00;98543.91;5121674;27;20067;-47
2023/03/10 07:20:49;;;;;;;7.35;3.40;;;;;;;1.58;100.00;98544.19;5122130;27;20157;-51
2023/03/10 07:23:17;;;;;;;7.63;3.35;;;;;;;1.58;100.00;98548.53;5131342;27;20047;-50
2023/03/10 07:25:46;;;;;;;8.10;3.90;;;;;;;1.60;100.00;98550.09;5134115;27;20040;-50
2023/03/10 07:28:14;;;;;;;7.50;3.80;;;;;;;1.59;100.00;98550.19;5118629;27;20052;-52
2023/03/10 07:30:42;;;;;;;8.07;3.63;;;;;;;1.57;100.00;98544.28;5120577;27;20126;-47
2023/03/10 07:33:11;;;;;;;9.18;4.65;;;;;;;1.58;100.00;98551.13;5121609;27;20114;-60
2023/03/10 07:35:40;;;;;;;8.50;4.03;;;;;;;1.62;100.00;98550.84;5134890;27;20096;-60
2023/03/10 07:38:08;;;;;;;9.18;4.63;;;;;;;1.68;100.00;98562.56;5116477;28;20043;-60
2023/03/10 07:40:36;;;;;;;8.93;4.22;;;;;;;1.64;100.00;98561.09;5116296;28;20078;-60
2023/03/10 07:43:04;;;;;;;7.82;3.88;;;;;;;1.65;100.00;98571.38;5122674;27;20451;-60
2023/03/10 07:45:33;;;;;;;9.85;3.85;;;;;;;1.69;100.00;98559.03;5122760;27;20108;-50
2023/03/10 07:48:01;;;;;;;7.80;3.90;;;;;;;1.66;100.00;98559.22;5120939;27;20554;-53
2023/03/10 07:50:30;;;;;;;7.70;3.92;;;;;;;1.72;100.00;98565.78;5117812;27;20114;-50
2023/03/10 07:52:58;;;;;;;8.68;4.10;;;;;;;1.67;100.00;98569.50;5129471;27;20047;-51
2023/03/10 07:55:27;;;;;;;10.88;4.60;;;;;;;1.66;100.00;98574.78;5113748;27;20047;-50
2023/03/10 07:57:55;;;;;;;9.50;5.13;;;;;;;1.68;100.00;98570.34;5125943;27;20123;-50
2023/03/10 08:00:23;;;;;;;9.82;4.90;;;;;;;1.72;100.00;98573.56;5119298;27;20155;-49
2023/03/10 08:02:52;;;;;;;10.88;5.20;;;;;;;1.73;100.00;98573.44;5132883;27;20390;-49
2023/03/10 08:05:20;;;;;;;9.85;5.22;;;;;;;1.72;100.00;98578.72;5122466;27;20044;-51
2023/03/10 08:07:49;;;;;;;12.25;5.38;;;;;;;1.82;100.00;98575.44;5126033;27;20513;-48
2023/03/10 08:10:18;;;;;;;9.32;4.30;;;;;;;1.79;100.00;98577.44;5121110;27;20475;-49
2023/03/10 08:12:46;;;;;;;7.90;4.20;;;;;;;1.75;100.00;98584.56;5117511;27;20119;-48
2023/03/10 08:15:14;;;;;;;9.55;4.68;;;;;;;1.83;100.00;98579.72;5134712;27;20078;-49
2023/03/10 08:17:42;;;;;;;8.57;4.40;;;;;;;1.90;100.00;98582.72;5133419;27;20043;-50
2023/03/10 08:20:11;;;;;;;9.73;4.57;;;;;;;1.93;100.00;98579.13;5134442;27;20061;-51
2023/03/10 08:22:39;;;;;;;9.10;3.72;;;;;;;1.98;100.00;98585.66;5131515;27;20440;-49
2023/03/10 08:25:11;;;;;;;8.93;4.05;;;;;;;1.98;100.00;98580.47;5120264;27;20064;-53
2023/03/10 08:27:40;;;;;;;8.57;4.30;;;;;;;2.07;100.00;98578.19;5119523;27;20051;-52
2023/03/10 08:30:09;;;;;;;8.48;3.70;;;;;;;2.02;100.00;98576.75;5117747;27;20428;-52
2023/03/10 08:32:37;;;;;;;6.68;3.42;;;;;;;2.03;100.00;98578.41;5122319;27;20076;-51
2023/03/10 08:35:07;;;;;;;8.10;3.50;;;;;;;2.07;100.00;98585.97;5127632;27;20584;-52
2023/03/10 08:37:35;;;;;;;8.40;3.72;;;;;;;2.08;100.00;98585.88;5119961;27;20489;-50
2023/03/10 08:40:06;;;;;;;6.60;3.28;;;;;;;2.11;100.00;98585.66;5123542;27;20387;-49
2023/03/10 08:42:36;;;;;;;7.82;3.65;;;;;;;2.13;100.00;98586.41;5122443;27;20047;-49
2023/03/10 08:45:05;;;;;;;8.02;3.60;;;;;;;2.07;100.00;98581.63;5127558;27;20088;-53
2023/03/10 08:47:36;;;;;;;9.48;3.72;;;;;;;2.16;100.00;98580.19;5119597;27;20443;-51
2023/03/10 08:50:05;;;;;;;7.97;3.42;;;;;;;2.30;100.00;98584.44;5124013;27;20070;-52
2023/03/10 08:52:37;;;;;;;8.88;3.80;;;;;;;2.30;100.00;98592.25;5121497;27;20458;-52
2023/03/10 08:55:06;;;;;;;9.98;3.75;;;;;;;2.32;100.00;98600.75;5123335;27;20409;-53
2023/03/10 08:57:36;;;;;;;9.15;3.78;;;;;;;2.35;100.00;98596.19;5127366;27;20104;-52
2023/03/10 09:03:38;;;;;;;7.20;3.40;;;;;;;2.51;100.00;98597.75;5132732;27;20039;-50
2023/03/10 09:06:09;;;;;;;6.10;2.70;;;;;;;2.50;100.00;98599.50;5115921;27;20122;-50
2023/03/10 09:08:38;;;;;;;6.28;2.95;;;;;;;2.45;100.00;98605.94;5134887;27;20829;-53
2023/03/10 09:11:07;;;;;;;6.85;2.85;;;;;;;2.42;100.00;98601.78;5134772;27;20062;-53
2023/03/10 09:13:36;;;;;;;7.18;3.13;;;;;;;2.42;100.00;98606.16;5132860;27;20111;-52
2023/03/10 09:16:05;;;;;;;7.10;3.47;;;;;;;2.44;100.00;98606.88;5123833;27;20055;-52
2023/03/10 09:18:33;;;;;;;7.03;3.50;;;;;;;2.50;100.00;98599.50;5130862;27;20039;-52
2023/03/10 09:21:01;;;;;;;7.45;3.42;;;;;;;2.50;100.00;98596.91;5131558;27;20055;-53
2023/03/10 09:23:29;;;;;;;8.35;3.30;;;;;;;2.56;100.00;98594.84;5126881;27;20374;-50
2023/03/10 09:25:58;;;;;;;7.82;3.03;;;;;;;2.54;100.00;98603.56;5127709;27;20047;-52
2023/03/10 09:28:26;;;;;;;9.35;3.60;;;;;;;2.68;100.00;98604.41;5129711;27;20050;-53
2023/03/10 09:30:58;;;;;;;7.57;3.40;;;;;;;2.64;100.00;98605.53;5132086;27;20039;-49
2023/03/10 09:33:26;;;;;;;7.70;3.17;;;;;;;2.63;100.00;98609.06;5116704;27;20047;-50
2023/03/10 09:35:56;;;;;;;7.90;3.22;;;;;;;2.69;100.00;98606.88;5119377;27;20039;-51
2023/03/10 09:38:34;;;;;;;6.53;3.10;;;;;;;2.71;100.00;98609.38;5133138;27;20058;-49
2023/03/10 09:41:15;;;;;;;7.30;3.17;;;;;;;2.61;100.00;98597.97;5133178;27;20048;-53
2023/03/10 09:43:49;;;;;;;7.50;3.35;;;;;;;2.64;100.00;98593.38;5133503;27;20130;-51
2023/03/10 09:46:24;;;;;;;5.90;2.75;;;;;;;2.58;100.00;98599.00;5133821;27;20397;-49
2023/03/10 09:49:01;;;;;;;6.80;3.20;;;;;;;2.63;100.00;98589.16;5125838;27;20043;-53
2023/03/10 09:51:29;;;;;;;7.43;2.80;;;;;;;2.63;100.00;98588.28;5110096;28;20100;-50
2023/03/10 09:54:11;;;;;;;6.20;2.78;;;;;;;2.72;100.00;98582.47;5125332;27;20119;-52
2023/03/10 09:56:39;;;;;;;6.47;2.80;;;;;;;2.74;100.00;98596.19;5130159;27;20096;-52
2023/03/10 09:59:12;;;;;;;5.90;3.20;;;;;;;2.69;100.00;98599.09;5132498;27;20496;-52
2023/03/10 10:01:45;;;;;;;5.88;2.60;;;;;;;2.71;100.00;98598.97;5131628;27;20055;-51
2023/03/10 10:04:18;;;;;;;6.03;2.70;;;;;;;2.75;100.00;98603.03;5131168;27;20043;-50
2023/03/10 10:06:48;;;;;;;8.45;3.28;;;;;;;2.80;100.00;98602.72;5119334;27;20512;-51
2023/03/10 10:09:26;;;;;;;7.03;3.30;;;;;;;2.83;100.00;98611.13;5112425;28;20039;-52
2023/03/10 10:11:54;;;;;;;6.53;2.85;;;;;;;2.82;100.00;98614.69;5109688;28;20618;-53
2023/03/10 10:14:24;;;;;;;6.30;2.85;;;;;;;2.84;100.00;98614.56;5115181;27;20130;-53
2023/03/10 10:17:08;;;;;;;5.28;2.40;;;;;;;2.81;100.00;98609.56;5121062;27;20062;-55
2023/03/10 10:19:39;;;;;;;6.30;2.70;;;;;;;2.80;100.00;98613.94;5120576;27;20078;-51
2023/03/10 10:22:15;;;;;;;6.45;2.90;;;;;;;2.86;100.00;98618.72;5131635;27;20520;-52
2023/03/10 10:24:59;;;;;;;7.00;3.10;;;;;;;2.79;100.00;98616.63;5116535;27;20050;-52
2023/03/10 10:27:27;;;;;;;6.30;2.70;;;;;;;2.74;100.00;98619.56;5133469;27;20451;-53
2023/03/10 10:29:55;;;;;;;6.97;2.55;;;;;;;2.79;100.00;98622.66;5132433;27;20055;-53
2023/03/10 10:32:25;;;;;;;4.82;2.40;;;;;;;2.84;100.00;98614.56;5130248;28;20054;-48
2023/03/10 10:35:13;;;;;;;5.63;2.72;;;;;;;2.91;100.00;98610.59;5131187;27;20482;-50
2023/03/10 10:37:42;;;;;;;6.03;2.50;;;;;;;2.93;100.00;98613.94;5129021;27;20104;-51
2023/03/10 10:40:24;;;;;;;5.60;2.30;;;;;;;2.92;100.00;98619.22;5110950;28;20040;-52
2023/03/10 10:42:54;;;;;;;6.30;2.70;;;;;;;2.94;100.00;98622.56;5122187;28;20043;-49
2023/03/10 10:45:29;;;;;;;5.35;2.50;;;;;;;3.06;100.00;98620.88;5133286;27;20121;-51
2023/03/10 10:48:02;;;;;;;6.18;2.70;;;;;;;3.09;100.00;98618.88;5132620;28;20039;-51
2023/03/10 10:50:31;;;;;;;7.13;2.85;;;;;;;3.12;100.00;98616.09;5132735;28;20104;-51
2023/03/10 10:53:19;;;;;;;5.88;2.70;;;;;;;3.16;100.00;98620.13;5110829;28;20379;-50
2023/03/10 10:56:00;;;;;;;7.05;3.08;;;;;;;3.24;100.00;98618.75;5109016;28;20047;-50
2023/03/10 10:58:32;;;;;;;6.53;3.15;;;;;;;3.18;100.00;98620.84;5108920;28;20057;-50
2023/03/10 11:01:02;;;;;;;6.50;3.00;;;;;;;3.19;100.00;98612.13;5110765;28;20048;-47
2023/03/10 11:03:33;;;;;;;9.05;4.60;;;;;;;3.15;100.00;98615.88;5112949;28;20046;-51
2023/03/10 11:06:13;;;;;;;6.65;3.53;;;;;;;3.16;100.00;98614.94;5125887;28;20039;-50
2023/03/10 11:08:49;;;;;;;5.93;2.75;;;;;;;3.13;100.00;98622.09;5111577;28;20543;-51
2023/03/10 11:11:24;;;;;;;7.82;3.30;;;;;;;3.15;100.00;98615.88;5116635;28;20043;-48
2023/03/10 11:14:16;;;;;;;6.97;3.22;;;;;;;3.16;100.00;98612.34;5131473;27;20506;-52
2023/03/10 11:16:52;;;;;;;8.10;3.53;;;;;;;3.04;100.00;98611.41;5118905;28;20097;-52
2023/03/10 11:19:32;;;;;;;7.30;3.78;;;;;;;3.00;100.00;98616.91;5112234;28;20042;-54
2023/03/10 11:22:05;;;;;;;8.35;3.55;;;;;;;2.95;100.00;98611.22;5125525;27;20051;-51
2023/03/10 11:24:40;;;;;;;6.97;3.17;;;;;;;2.96;100.00;98611.13;5125732;27;20513;-51
2023/03/10 11:27:15;;;;;;;7.18;3.33;;;;;;;2.94;100.00;98614.75;5115061;28;20059;-50
2023/03/10 11:30:01;;;;;;;7.13;3.47;;;;;;;2.96;100.00;98607.69;5116857;27;20043;-48
2023/03/10 11:32:39;;;;;;;6.90;3.58;;;;;;;2.99;100.00;98607.50;5116387;27;20043;-52
2023/03/10 11:35:21;;;;;;;6.53;3.20;;;;;;;2.95;100.00;98616.44;5129497;27;20047;-50
2023/03/10 11:37:56;;;;;;;6.35;3.00;;;;;;;2.93;100.00;98615.69;5116568;27;20094;-49
2023/03/10 11:40:31;;;;;;;6.57;3.05;;;;;;;2.91;100.00;98614.97;5130959;27;20047;-52
2023/03/10 11:43:04;;;;;;;7.38;3.13;;;;;;;2.95;100.00;98613.84;5118477;27;20104;-52
2023/03/10 11:45:37;;;;;;;8.75;3.67;;;;;;;2.88;100.00;98618.63;5112295;28;20130;-52
2023/03/10 11:48:27;;;;;;;6.85;3.42;;;;;;;2.85;100.00;98617.06;5131280;27;20059;-53
2023/03/10 11:50:59;;;;;;;7.72;3.33;;;;;;;2.81;100.00;98614.75;5131656;27;20043;-54